sensor_id;sensor_type;location;lat;lon;timestamp;P1;durP1;ratioP1;P2;durP2;ratioP2
79143;SDS011;68551;47.484;19.092;2023-04-24T00:00:09;6.13;;;4.60;;
79143;SDS011;68551;47.484;19.092;2023-04-24T00:03:16;8.73;;;4.80;;
79143;SDS011;68551;47.484;19.092;2023-04-24T00:06:22;7.55;;;4.60;;
79143;SDS011;68551;47.484;19.092;2023-04-24T00:09:25;9.68;;;5.50;;
79143;SDS011;68551;47.484;19.092;2023-04-24T00:12:28;7.53;;;4.40;;
79143;SDS011;68551;47.484;19.092;2023-04-24T00:15:32;5.47;;;4.10;;
79143;SDS011;68551;47.484;19.092;2023-04-24T00:18:35;6.82;;;5.05;;
79143;SDS011;68551;47.484;19.092;2023-04-24T00:21:37;7.30;;;4.60;;
79143;SDS011;68551;47.484;19.092;2023-04-24T00:24:41;6.78;;;4.53;;
79143;SDS011;68551;47.484;19.092;2023-04-24T00:27:46;9.45;;;4.63;;
79143;SDS011;68551;47.484;19.092;2023-04-24T00:30:48;7.50;;;5.22;;
79143;SDS011;68551;47.484;19.092;2023-04-24T00:33:51;5.28;;;4.45;;
79143;SDS011;68551;47.484;19.092;2023-04-24T00:36:53;5.45;;;4.68;;
79143;SDS011;68551;47.484;19.092;2023-04-24T00:39:58;9.13;;;4.80;;
79143;SDS011;68551;47.484;19.092;2023-04-24T00:43:06;6.25;;;4.95;;
79143;SDS011;68551;47.484;19.092;2023-04-24T00:46:11;5.40;;;4.40;;
79143;SDS011;68551;47.484;19.092;2023-04-24T00:49:19;6.55;;;4.70;;
79143;SDS011;68551;47.484;19.092;2023-04-24T00:52:24;7.35;;;5.05;;
79143;SDS011;68551;47.484;19.092;2023-04-24T00:55:32;6.93;;;5.30;;
79143;SDS011;68551;47.484;19.092;2023-04-24T00:58:35;9.10;;;5.38;;
79143;SDS011;68551;47.484;19.092;2023-04-24T01:01:43;7.90;;;5.40;;
79143;SDS011;68551;47.484;19.092;2023-04-24T01:04:50;7.75;;;5.05;;
79143;SDS011;68551;47.484;19.092;2023-04-24T01:07:55;5.70;;;5.05;;
79143;SDS011;68551;47.484;19.092;2023-04-24T01:14:04;6.97;;;4.90;;
79143;SDS011;68551;47.484;19.092;2023-04-24T01:17:08;8.70;;;5.72;;
79143;SDS011;68551;47.484;19.092;2023-04-24T01:20:13;8.75;;;5.78;;
79143;SDS011;68551;47.484;19.092;2023-04-24T01:23:16;6.40;;;5.55;;
79143;SDS011;68551;47.484;19.092;2023-04-24T01:26:22;7.35;;;5.15;;
79143;SDS011;68551;47.484;19.092;2023-04-24T01:29:26;6.97;;;5.82;;
79143;SDS011;68551;47.484;19.092;2023-04-24T01:32:31;7.60;;;5.75;;
79143;SDS011;68551;47.484;19.092;2023-04-24T01:35:39;9.18;;;5.85;;
79143;SDS011;68551;47.484;19.092;2023-04-24T01:41:44;6.95;;;5.75;;
79143;SDS011;68551;47.484;19.092;2023-04-24T01:44:46;7.55;;;5.53;;
79143;SDS011;68551;47.484;19.092;2023-04-24T01:47:49;8.63;;;5.50;;
79143;SDS011;68551;47.484;19.092;2023-04-24T01:50:52;5.63;;;5.03;;
79143;SDS011;68551;47.484;19.092;2023-04-24T01:53:54;7.75;;;5.05;;
79143;SDS011;68551;47.484;19.092;2023-04-24T01:56:59;10.15;;;6.10;;
79143;SDS011;68551;47.484;19.092;2023-04-24T02:00:07;8.52;;;4.97;;
79143;SDS011;68551;47.484;19.092;2023-04-24T02:03:15;8.07;;;6.13;;
79143;SDS011;68551;47.484;19.092;2023-04-24T02:06:18;8.23;;;6.07;;
79143;SDS011;68551;47.484;19.092;2023-04-24T02:09:20;7.38;;;5.45;;
79143;SDS011;68551;47.484;19.092;2023-04-24T02:12:23;10.40;;;5.88;;
79143;SDS011;68551;47.484;19.092;2023-04-24T02:15:26;11.25;;;6.50;;
79143;SDS011;68551;47.484;19.092;2023-04-24T02:18:30;5.97;;;5.30;;
79143;SDS011;68551;47.484;19.092;2023-04-24T02:21:33;9.60;;;5.30;;
79143;SDS011;68551;47.484;19.092;2023-04-24T02:24:43;7.68;;;6.07;;
79143;SDS011;68551;47.484;19.092;2023-04-24T02:27:52;6.28;;;5.13;;
79143;SDS011;68551;47.484;19.092;2023-04-24T02:30:54;10.20;;;6.43;;
79143;SDS011;68551;47.484;19.092;2023-04-24T02:33:59;8.98;;;6.32;;
79143;SDS011;68551;47.484;19.092;2023-04-24T02:37:03;8.63;;;5.95;;
79143;SDS011;68551;47.484;19.092;2023-04-24T02:40:06;7.38;;;5.60;;
79143;SDS011;68551;47.484;19.092;2023-04-24T02:43:15;6.72;;;5.47;;
79143;SDS011;68551;47.484;19.092;2023-04-24T02:46:17;7.63;;;5.50;;
79143;SDS011;68551;47.484;19.092;2023-04-24T02:49:21;7.07;;;5.93;;
79143;SDS011;68551;47.484;19.092;2023-04-24T02:52:31;10.35;;;5.95;;
79143;SDS011;68551;47.484;19.092;2023-04-24T02:55:33;7.50;;;6.65;;
79143;SDS011;68551;47.484;19.092;2023-04-24T02:58:35;6.97;;;6.13;;
79143;SDS011;68551;47.484;19.092;2023-04-24T03:01:37;9.82;;;6.40;;
79143;SDS011;68551;47.484;19.092;2023-04-24T03:04:40;9.55;;;5.90;;
79143;SDS011;68551;47.484;19.092;2023-04-24T03:07:45;7.45;;;6.03;;
79143;SDS011;68551;47.484;19.092;2023-04-24T03:10:47;7.97;;;6.22;;
79143;SDS011;68551;47.484;19.092;2023-04-24T03:13:49;7.80;;;6.88;;
79143;SDS011;68551;47.484;19.092;2023-04-24T03:16:51;9.25;;;6.88;;
79143;SDS011;68551;47.484;19.092;2023-04-24T03:19:56;9.48;;;6.53;;
79143;SDS011;68551;47.484;19.092;2023-04-24T03:23:01;9.65;;;6.72;;
79143;SDS011;68551;47.484;19.092;2023-04-24T03:26:03;7.28;;;6.13;;
79143;SDS011;68551;47.484;19.092;2023-04-24T03:29:10;9.20;;;7.95;;
79143;SDS011;68551;47.484;19.092;2023-04-24T03:32:20;8.68;;;6.32;;
79143;SDS011;68551;47.484;19.092;2023-04-24T03:35:28;7.55;;;6.35;;
79143;SDS011;68551;47.484;19.092;2023-04-24T03:38:36;7.97;;;6.05;;
79143;SDS011;68551;47.484;19.092;2023-04-24T03:42:14;9.32;;;6.43;;
79143;SDS011;68551;47.484;19.092;2023-04-24T03:45:27;8.52;;;6.13;;
79143;SDS011;68551;47.484;19.092;2023-04-24T03:48:32;9.02;;;6.50;;
79143;SDS011;68551;47.484;19.092;2023-04-24T03:51:37;8.85;;;6.70;;
79143;SDS011;68551;47.484;19.092;2023-04-24T03:54:52;10.13;;;7.05;;
79143;SDS011;68551;47.484;19.092;2023-04-24T03:57:54;7.93;;;6.47;;
79143;SDS011;68551;47.484;19.092;2023-04-24T04:00:57;7.45;;;5.97;;
79143;SDS011;68551;47.484;19.092;2023-04-24T04:04:29;10.50;;;6.80;;
79143;SDS011;68551;47.484;19.092;2023-04-24T04:07:31;8.48;;;7.40;;
79143;SDS011;68551;47.484;19.092;2023-04-24T04:10:38;10.65;;;6.85;;
79143;SDS011;68551;47.484;19.092;2023-04-24T04:13:40;8.35;;;6.68;;
79143;SDS011;68551;47.484;19.092;2023-04-24T04:16:45;8.60;;;6.97;;
79143;SDS011;68551;47.484;19.092;2023-04-24T04:19:50;10.95;;;7.25;;
79143;SDS011;68551;47.484;19.092;2023-04-24T04:22:52;11.43;;;6.95;;
79143;SDS011;68551;47.484;19.092;2023-04-24T04:26:04;8.80;;;6.75;;
79143;SDS011;68551;47.484;19.092;2023-04-24T04:29:24;13.02;;;7.57;;
79143;SDS011;68551;47.484;19.092;2023-04-24T04:32:35;7.43;;;6.72;;
79143;SDS011;68551;47.484;19.092;2023-04-24T04:35:38;9.15;;;7.22;;
79143;SDS011;68551;47.484;19.092;2023-04-24T04:38:46;7.72;;;5.65;;
79143;SDS011;68551;47.484;19.092;2023-04-24T04:42:09;8.55;;;6.90;;
79143;SDS011;68551;47.484;19.092;2023-04-24T04:45:16;8.68;;;6.85;;
79143;SDS011;68551;47.484;19.092;2023-04-24T04:48:44;7.47;;;6.05;;
79143;SDS011;68551;47.484;19.092;2023-04-24T04:51:46;8.55;;;6.47;;
79143;SDS011;68551;47.484;19.092;2023-04-24T04:54:55;7.10;;;6.28;;
79143;SDS011;68551;47.484;19.092;2023-04-24T04:58:04;7.80;;;7.00;;
79143;SDS011;68551;47.484;19.092;2023-04-24T05:01:06;10.15;;;6.88;;
79143;SDS011;68551;47.484;19.092;2023-04-24T05:04:15;8.65;;;6.47;;
79143;SDS011;68551;47.484;19.092;2023-04-24T05:07:21;8.02;;;6.72;;
79143;SDS011;68551;47.484;19.092;2023-04-24T05:10:29;9.05;;;6.53;;
79143;SDS011;68551;47.484;19.092;2023-04-24T05:13:36;7.75;;;6.95;;
79143;SDS011;68551;47.484;19.092;2023-04-24T05:16:50;7.47;;;5.78;;
79143;SDS011;68551;47.484;19.092;2023-04-24T05:19:58;7.97;;;6.15;;
79143;SDS011;68551;47.484;19.092;2023-04-24T05:23:07;8.27;;;6.53;;
79143;SDS011;68551;47.484;19.092;2023-04-24T05:26:13;8.18;;;6.68;;
79143;SDS011;68551;47.484;19.092;2023-04-24T05:29:18;8.13;;;7.28;;
79143;SDS011;68551;47.484;19.092;2023-04-24T05:32:25;8.77;;;7.18;;
79143;SDS011;68551;47.484;19.092;2023-04-24T05:35:29;9.32;;;6.07;;
79143;SDS011;68551;47.484;19.092;2023-04-24T05:38:35;10.05;;;7.22;;
79143;SDS011;68551;47.484;19.092;2023-04-24T05:41:37;7.97;;;5.68;;
79143;SDS011;68551;47.484;19.092;2023-04-24T05:44:39;10.82;;;7.35;;
79143;SDS011;68551;47.484;19.092;2023-04-24T05:47:44;8.50;;;5.97;;
79143;SDS011;68551;47.484;19.092;2023-04-24T05:50:49;10.10;;;6.05;;
79143;SDS011;68551;47.484;19.092;2023-04-24T05:53:52;10.85;;;7.28;;
79143;SDS011;68551;47.484;19.092;2023-04-24T05:56:55;9.35;;;6.93;;
79143;SDS011;68551;47.484;19.092;2023-04-24T06:00:09;7.45;;;6.63;;
79143;SDS011;68551;47.484;19.092;2023-04-24T06:03:24;8.63;;;7.07;;
79143;SDS011;68551;47.484;19.092;2023-04-24T06:06:27;7.60;;;6.20;;
79143;SDS011;68551;47.484;19.092;2023-04-24T06:09:32;8.23;;;6.70;;
79143;SDS011;68551;47.484;19.092;2023-04-24T06:12:37;8.98;;;6.55;;
79143;SDS011;68551;47.484;19.092;2023-04-24T06:15:47;8.55;;;6.10;;
79143;SDS011;68551;47.484;19.092;2023-04-24T06:19:00;8.75;;;6.30;;
79143;SDS011;68551;47.484;19.092;2023-04-24T06:22:04;7.00;;;5.70;;
79143;SDS011;68551;47.484;19.092;2023-04-24T06:25:07;7.40;;;5.55;;
79143;SDS011;68551;47.484;19.092;2023-04-24T06:28:09;7.82;;;6.28;;
79143;SDS011;68551;47.484;19.092;2023-04-24T06:31:16;9.02;;;7.30;;
79143;SDS011;68551;47.484;19.092;2023-04-24T06:34:21;7.70;;;5.38;;
79143;SDS011;68551;47.484;19.092;2023-04-24T06:37:26;7.40;;;5.72;;
79143;SDS011;68551;47.484;19.092;2023-04-24T06:40:30;7.82;;;6.20;;
79143;SDS011;68551;47.484;19.092;2023-04-24T06:43:33;8.25;;;7.00;;
79143;SDS011;68551;47.484;19.092;2023-04-24T06:46:36;10.00;;;6.72;;
79143;SDS011;68551;47.484;19.092;2023-04-24T06:49:42;9.93;;;6.65;;
79143;SDS011;68551;47.484;19.092;2023-04-24T06:52:45;9.18;;;7.07;;
79143;SDS011;68551;47.484;19.092;2023-04-24T06:55:50;10.98;;;6.82;;
79143;SDS011;68551;47.484;19.092;2023-04-24T06:58:57;9.20;;;6.72;;
79143;SDS011;68551;47.484;19.092;2023-04-24T07:02:02;9.60;;;7.30;;
79143;SDS011;68551;47.484;19.092;2023-04-24T07:05:07;8.82;;;6.57;;
79143;SDS011;68551;47.484;19.092;2023-04-24T07:08:12;7.38;;;6.40;;
79143;SDS011;68551;47.484;19.092;2023-04-24T07:11:15;10.68;;;7.22;;
79143;SDS011;68551;47.484;19.092;2023-04-24T07:14:20;10.88;;;6.75;;
79143;SDS011;68551;47.484;19.092;2023-04-24T07:17:25;8.05;;;7.25;;
79143;SDS011;68551;47.484;19.092;2023-04-24T07:20:28;8.23;;;6.45;;
79143;SDS011;68551;47.484;19.092;2023-04-24T07:23:33;8.35;;;7.10;;
79143;SDS011;68551;47.484;19.092;2023-04-24T07:26:38;8.48;;;6.45;;
79143;SDS011;68551;47.484;19.092;2023-04-24T07:29:45;8.45;;;6.85;;
79143;SDS011;68551;47.484;19.092;2023-04-24T07:32:51;11.95;;;7.70;;
79143;SDS011;68551;47.484;19.092;2023-04-24T07:35:55;10.73;;;7.32;;
79143;SDS011;68551;47.484;19.092;2023-04-24T07:39:03;10.75;;;6.97;;
79143;SDS011;68551;47.484;19.092;2023-04-24T07:42:08;9.15;;;6.95;;
79143;SDS011;68551;47.484;19.092;2023-04-24T07:45:10;10.35;;;7.35;;
79143;SDS011;68551;47.484;19.092;2023-04-24T07:48:12;10.32;;;7.22;;
79143;SDS011;68551;47.484;19.092;2023-04-24T07:51:18;7.72;;;6.88;;
79143;SDS011;68551;47.484;19.092;2023-04-24T07:54:20;8.88;;;7.43;;
79143;SDS011;68551;47.484;19.092;2023-04-24T07:57:22;8.55;;;7.03;;
79143;SDS011;68551;47.484;19.092;2023-04-24T08:00:26;8.98;;;7.03;;
79143;SDS011;68551;47.484;19.092;2023-04-24T08:03:28;8.13;;;5.93;;
79143;SDS011;68551;47.484;19.092;2023-04-24T08:06:31;11.45;;;8.02;;
79143;SDS011;68551;47.484;19.092;2023-04-24T08:09:33;11.07;;;7.00;;
79143;SDS011;68551;47.484;19.092;2023-04-24T08:12:36;9.07;;;7.38;;
79143;SDS011;68551;47.484;19.092;2023-04-24T08:15:39;8.13;;;7.13;;
79143;SDS011;68551;47.484;19.092;2023-04-24T08:18:42;8.05;;;7.22;;
79143;SDS011;68551;47.484;19.092;2023-04-24T08:21:47;7.80;;;6.13;;
79143;SDS011;68551;47.484;19.092;2023-04-24T08:24:51;7.25;;;6.22;;
79143;SDS011;68551;47.484;19.092;2023-04-24T08:27:54;10.15;;;7.13;;
79143;SDS011;68551;47.484;19.092;2023-04-24T08:30:58;8.48;;;6.40;;
79143;SDS011;68551;47.484;19.092;2023-04-24T08:34:05;8.55;;;6.13;;
79143;SDS011;68551;47.484;19.092;2023-04-24T08:37:13;9.45;;;6.75;;
79143;SDS011;68551;47.484;19.092;2023-04-24T08:40:22;10.95;;;6.78;;
79143;SDS011;68551;47.484;19.092;2023-04-24T08:43:34;8.55;;;7.75;;
79143;SDS011;68551;47.484;19.092;2023-04-24T08:46:43;7.22;;;6.10;;
79143;SDS011;68551;47.484;19.092;2023-04-24T08:49:52;8.38;;;6.75;;
79143;SDS011;68551;47.484;19.092;2023-04-24T08:52:58;8.52;;;6.38;;
79143;SDS011;68551;47.484;19.092;2023-04-24T08:56:07;9.38;;;6.40;;
79143;SDS011;68551;47.484;19.092;2023-04-24T08:59:16;8.63;;;7.20;;
79143;SDS011;68551;47.484;19.092;2023-04-24T09:02:23;9.70;;;7.57;;
79143;SDS011;68551;47.484;19.092;2023-04-24T09:05:27;11.70;;;6.63;;
79143;SDS011;68551;47.484;19.092;2023-04-24T09:08:30;8.63;;;6.45;;
79143;SDS011;68551;47.484;19.092;2023-04-24T09:11:35;8.13;;;6.10;;
79143;SDS011;68551;47.484;19.092;2023-04-24T09:14:41;8.35;;;6.07;;
79143;SDS011;68551;47.484;19.092;2023-04-24T09:17:47;7.28;;;6.07;;
79143;SDS011;68551;47.484;19.092;2023-04-24T09:21:02;8.05;;;5.45;;
79143;SDS011;68551;47.484;19.092;2023-04-24T09:24:07;6.65;;;5.93;;
79143;SDS011;68551;47.484;19.092;2023-04-24T09:27:16;6.57;;;5.03;;
79143;SDS011;68551;47.484;19.092;2023-04-24T09:30:21;6.85;;;5.05;;
79143;SDS011;68551;47.484;19.092;2023-04-24T09:33:27;9.18;;;5.03;;
79143;SDS011;68551;47.484;19.092;2023-04-24T09:36:31;9.57;;;5.05;;
79143;SDS011;68551;47.484;19.092;2023-04-24T09:39:42;5.97;;;4.85;;
79143;SDS011;68551;47.484;19.092;2023-04-24T09:42:56;6.65;;;4.97;;
79143;SDS011;68551;47.484;19.092;2023-04-24T09:46:06;6.43;;;5.57;;
79143;SDS011;68551;47.484;19.092;2023-04-24T09:49:22;7.38;;;5.45;;
79143;SDS011;68551;47.484;19.092;2023-04-24T09:52:28;5.55;;;4.20;;
79143;SDS011;68551;47.484;19.092;2023-04-24T09:55:35;7.50;;;5.18;;
79143;SDS011;68551;47.484;19.092;2023-04-24T09:58:41;6.45;;;5.20;;
79143;SDS011;68551;47.484;19.092;2023-04-24T10:01:43;5.55;;;4.57;;
79143;SDS011;68551;47.484;19.092;2023-04-24T10:04:54;5.63;;;4.60;;
79143;SDS011;68551;47.484;19.092;2023-04-24T10:08:05;5.18;;;4.03;;
79143;SDS011;68551;47.484;19.092;2023-04-24T10:11:09;5.03;;;4.30;;
79143;SDS011;68551;47.484;19.092;2023-04-24T10:14:16;5.85;;;4.50;;
79143;SDS011;68551;47.484;19.092;2023-04-24T10:17:30;6.72;;;4.10;;
79143;SDS011;68551;47.484;19.092;2023-04-24T10:20:35;6.57;;;4.47;;
79143;SDS011;68551;47.484;19.092;2023-04-24T10:23:39;5.82;;;4.63;;
79143;SDS011;68551;47.484;19.092;2023-04-24T10:26:44;7.03;;;4.97;;
79143;SDS011;68551;47.484;19.092;2023-04-24T10:29:47;6.28;;;4.22;;
79143;SDS011;68551;47.484;19.092;2023-04-24T10:32:53;8.48;;;4.32;;
79143;SDS011;68551;47.484;19.092;2023-04-24T10:35:58;5.70;;;4.70;;
79143;SDS011;68551;47.484;19.092;2023-04-24T10:39:08;8.50;;;4.70;;
79143;SDS011;68551;47.484;19.092;2023-04-24T10:42:16;6.18;;;4.70;;
79143;SDS011;68551;47.484;19.092;2023-04-24T10:45:22;8.30;;;5.13;;
79143;SDS011;68551;47.484;19.092;2023-04-24T10:48:26;8.38;;;5.75;;
79143;SDS011;68551;47.484;19.092;2023-04-24T10:51:45;6.18;;;5.18;;
79143;SDS011;68551;47.484;19.092;2023-04-24T10:54:55;7.00;;;5.80;;
79143;SDS011;68551;47.484;19.092;2023-04-24T10:58:03;8.57;;;5.30;;
79143;SDS011;68551;47.484;19.092;2023-04-24T11:01:09;7.65;;;5.05;;
79143;SDS011;68551;47.484;19.092;2023-04-24T11:04:29;6.88;;;5.40;;
79143;SDS011;68551;47.484;19.092;2023-04-24T11:11:17;7.53;;;6.03;;
79143;SDS011;68551;47.484;19.092;2023-04-24T11:14:22;6.25;;;5.55;;
79143;SDS011;68551;47.484;19.092;2023-04-24T11:17:29;6.25;;;5.50;;
79143;SDS011;68551;47.484;19.092;2023-04-24T11:20:48;6.68;;;5.72;;
79143;SDS011;68551;47.484;19.092;2023-04-24T11:23:56;6.88;;;5.68;;
79143;SDS011;68551;47.484;19.092;2023-04-24T11:30:24;6.65;;;5.22;;
79143;SDS011;68551;47.484;19.092;2023-04-24T11:33:34;7.10;;;5.50;;
79143;SDS011;68551;47.484;19.092;2023-04-24T11:36:36;7.00;;;6.05;;
79143;SDS011;68551;47.484;19.092;2023-04-24T11:39:39;7.68;;;6.00;;
79143;SDS011;68551;47.484;19.092;2023-04-24T11:42:46;8.13;;;6.45;;
79143;SDS011;68551;47.484;19.092;2023-04-24T11:45:52;10.05;;;6.32;;
79143;SDS011;68551;47.484;19.092;2023-04-24T11:48:55;8.07;;;5.93;;
79143;SDS011;68551;47.484;19.092;2023-04-24T11:52:00;9.77;;;6.85;;
79143;SDS011;68551;47.484;19.092;2023-04-24T11:55:24;7.60;;;5.68;;
79143;SDS011;68551;47.484;19.092;2023-04-24T11:58:34;8.07;;;5.70;;
79143;SDS011;68551;47.484;19.092;2023-04-24T12:01:44;7.75;;;6.40;;
79143;SDS011;68551;47.484;19.092;2023-04-24T12:04:50;8.18;;;7.00;;
79143;SDS011;68551;47.484;19.092;2023-04-24T12:07:57;8.43;;;6.50;;
79143;SDS011;68551;47.484;19.092;2023-04-24T12:11:03;10.40;;;7.00;;
79143;SDS011;68551;47.484;19.092;2023-04-24T12:14:10;9.15;;;6.10;;
79143;SDS011;68551;47.484;19.092;2023-04-24T12:17:13;9.23;;;6.57;;
79143;SDS011;68551;47.484;19.092;2023-04-24T12:20:16;6.82;;;5.03;;
79143;SDS011;68551;47.484;19.092;2023-04-24T12:23:34;9.77;;;5.00;;
79143;SDS011;68551;47.484;19.092;2023-04-24T12:26:42;6.32;;;5.15;;
79143;SDS011;68551;47.484;19.092;2023-04-24T12:29:52;9.05;;;5.53;;
79143;SDS011;68551;47.484;19.092;2023-04-24T12:33:02;8.50;;;6.53;;
79143;SDS011;68551;47.484;19.092;2023-04-24T12:36:07;6.63;;;5.57;;
79143;SDS011;68551;47.484;19.092;2023-04-24T12:39:15;8.40;;;6.05;;
79143;SDS011;68551;47.484;19.092;2023-04-24T12:42:25;8.93;;;6.38;;
79143;SDS011;68551;47.484;19.092;2023-04-24T12:45:31;8.30;;;5.95;;
79143;SDS011;68551;47.484;19.092;2023-04-24T12:48:36;8.05;;;6.40;;
79143;SDS011;68551;47.484;19.092;2023-04-24T12:51:41;6.90;;;4.90;;
79143;SDS011;68551;47.484;19.092;2023-04-24T12:54:43;8.50;;;5.30;;
79143;SDS011;68551;47.484;19.092;2023-04-24T12:57:46;7.22;;;4.95;;
79143;SDS011;68551;47.484;19.092;2023-04-24T13:00:50;5.90;;;4.30;;
79143;SDS011;68551;47.484;19.092;2023-04-24T13:03:56;6.82;;;4.10;;
79143;SDS011;68551;47.484;19.092;2023-04-24T13:07:01;4.85;;;3.60;;
79143;SDS011;68551;47.484;19.092;2023-04-24T13:10:08;6.47;;;4.43;;
79143;SDS011;68551;47.484;19.092;2023-04-24T13:13:10;6.20;;;4.22;;
79143;SDS011;68551;47.484;19.092;2023-04-24T13:16:13;5.18;;;3.97;;
79143;SDS011;68551;47.484;19.092;2023-04-24T13:19:15;5.20;;;3.47;;
79143;SDS011;68551;47.484;19.092;2023-04-24T13:22:20;6.05;;;3.40;;
79143;SDS011;68551;47.484;19.092;2023-04-24T13:25:22;5.68;;;3.42;;
79143;SDS011;68551;47.484;19.092;2023-04-24T13:28:28;4.80;;;3.22;;
79143;SDS011;68551;47.484;19.092;2023-04-24T13:31:31;4.53;;;3.58;;
79143;SDS011;68551;47.484;19.092;2023-04-24T13:34:34;4.80;;;3.72;;
79143;SDS011;68551;47.484;19.092;2023-04-24T13:37:39;3.83;;;3.10;;
79143;SDS011;68551;47.484;19.092;2023-04-24T13:40:42;4.30;;;3.53;;
79143;SDS011;68551;47.484;19.092;2023-04-24T13:43:44;4.53;;;3.28;;
79143;SDS011;68551;47.484;19.092;2023-04-24T13:46:50;4.22;;;2.95;;
79143;SDS011;68551;47.484;19.092;2023-04-24T13:49:58;3.60;;;3.15;;
79143;SDS011;68551;47.484;19.092;2023-04-24T13:53:01;4.95;;;2.83;;
79143;SDS011;68551;47.484;19.092;2023-04-24T13:56:04;5.45;;;3.00;;
79143;SDS011;68551;47.484;19.092;2023-04-24T13:59:12;4.53;;;3.45;;
79143;SDS011;68551;47.484;19.092;2023-04-24T14:02:17;4.28;;;3.78;;
79143;SDS011;68551;47.484;19.092;2023-04-24T14:05:22;5.80;;;3.28;;
79143;SDS011;68551;47.484;19.092;2023-04-24T14:08:26;8.15;;;3.72;;
79143;SDS011;68551;47.484;19.092;2023-04-24T14:11:34;4.47;;;3.40;;
79143;SDS011;68551;47.484;19.092;2023-04-24T14:14:38;5.88;;;4.18;;
79143;SDS011;68551;47.484;19.092;2023-04-24T14:17:41;6.45;;;4.10;;
79143;SDS011;68551;47.484;19.092;2023-04-24T14:20:44;5.35;;;4.57;;
79143;SDS011;68551;47.484;19.092;2023-04-24T14:23:51;7.10;;;4.53;;
79143;SDS011;68551;47.484;19.092;2023-04-24T14:26:54;5.38;;;4.35;;
79143;SDS011;68551;47.484;19.092;2023-04-24T14:29:56;6.45;;;4.40;;
79143;SDS011;68551;47.484;19.092;2023-04-24T14:32:58;5.25;;;4.03;;
79143;SDS011;68551;47.484;19.092;2023-04-24T14:36:03;8.45;;;4.53;;
79143;SDS011;68551;47.484;19.092;2023-04-24T14:39:07;4.85;;;4.05;;
79143;SDS011;68551;47.484;19.092;2023-04-24T14:42:14;5.70;;;4.05;;
79143;SDS011;68551;47.484;19.092;2023-04-24T14:45:19;5.63;;;4.68;;
79143;SDS011;68551;47.484;19.092;2023-04-24T14:48:21;8.23;;;4.82;;
79143;SDS011;68551;47.484;19.092;2023-04-24T14:51:26;6.97;;;5.20;;
79143;SDS011;68551;47.484;19.092;2023-04-24T14:54:29;6.18;;;4.32;;
79143;SDS011;68551;47.484;19.092;2023-04-24T14:57:33;6.85;;;4.55;;
79143;SDS011;68551;47.484;19.092;2023-04-24T15:00:38;5.30;;;4.22;;
79143;SDS011;68551;47.484;19.092;2023-04-24T15:06:46;5.43;;;4.18;;
79143;SDS011;68551;47.484;19.092;2023-04-24T15:09:48;6.18;;;5.20;;
79143;SDS011;68551;47.484;19.092;2023-04-24T15:12:56;7.47;;;5.75;;
79143;SDS011;68551;47.484;19.092;2023-04-24T15:16:01;7.88;;;4.85;;
79143;SDS011;68551;47.484;19.092;2023-04-24T15:19:04;7.10;;;5.30;;
79143;SDS011;68551;47.484;19.092;2023-04-24T15:22:06;6.82;;;5.30;;
79143;SDS011;68551;47.484;19.092;2023-04-24T15:25:14;7.93;;;4.80;;
79143;SDS011;68551;47.484;19.092;2023-04-24T15:28:19;7.50;;;5.85;;
79143;SDS011;68551;47.484;19.092;2023-04-24T15:31:23;9.77;;;5.85;;
79143;SDS011;68551;47.484;19.092;2023-04-24T15:37:31;6.82;;;5.28;;
79143;SDS011;68551;47.484;19.092;2023-04-24T15:40:33;5.28;;;4.78;;
79143;SDS011;68551;47.484;19.092;2023-04-24T15:43:39;6.90;;;5.18;;
79143;SDS011;68551;47.484;19.092;2023-04-24T15:46:43;6.80;;;5.22;;
79143;SDS011;68551;47.484;19.092;2023-04-24T15:49:45;7.63;;;5.32;;
79143;SDS011;68551;47.484;19.092;2023-04-24T15:52:50;5.78;;;3.97;;
79143;SDS011;68551;47.484;19.092;2023-04-24T15:55:52;7.25;;;4.10;;
79143;SDS011;68551;47.484;19.092;2023-04-24T15:59:03;5.88;;;4.05;;
79143;SDS011;68551;47.484;19.092;2023-04-24T16:02:10;5.20;;;4.13;;
79143;SDS011;68551;47.484;19.092;2023-04-24T16:05:22;5.25;;;4.00;;
79143;SDS011;68551;47.484;19.092;2023-04-24T16:08:25;6.47;;;4.20;;
79143;SDS011;68551;47.484;19.092;2023-04-24T16:11:30;6.22;;;4.45;;
79143;SDS011;68551;47.484;19.092;2023-04-24T16:14:38;7.78;;;4.68;;
79143;SDS011;68551;47.484;19.092;2023-04-24T16:17:40;5.75;;;4.40;;
79143;SDS011;68551;47.484;19.092;2023-04-24T16:20:45;6.47;;;4.10;;
79143;SDS011;68551;47.484;19.092;2023-04-24T16:23:50;6.32;;;4.13;;
79143;SDS011;68551;47.484;19.092;2023-04-24T16:26:53;5.60;;;4.30;;
79143;SDS011;68551;47.484;19.092;2023-04-24T16:30:01;6.20;;;4.50;;
79143;SDS011;68551;47.484;19.092;2023-04-24T16:33:06;5.22;;;4.15;;
79143;SDS011;68551;47.484;19.092;2023-04-24T16:36:12;4.95;;;4.15;;
79143;SDS011;68551;47.484;19.092;2023-04-24T16:39:19;5.05;;;3.88;;
79143;SDS011;68551;47.484;19.092;2023-04-24T16:42:24;5.07;;;3.65;;
79143;SDS011;68551;47.484;19.092;2023-04-24T16:45:31;6.47;;;4.55;;
79143;SDS011;68551;47.484;19.092;2023-04-24T16:48:33;5.65;;;4.57;;
79143;SDS011;68551;47.484;19.092;2023-04-24T16:51:36;4.68;;;4.18;;
79143;SDS011;68551;47.484;19.092;2023-04-24T16:54:42;6.63;;;4.35;;
79143;SDS011;68551;47.484;19.092;2023-04-24T16:57:44;6.03;;;4.85;;
79143;SDS011;68551;47.484;19.092;2023-04-24T17:00:48;6.60;;;5.70;;
79143;SDS011;68551;47.484;19.092;2023-04-24T17:03:52;7.32;;;5.38;;
79143;SDS011;68551;47.484;19.092;2023-04-24T17:06:58;6.07;;;4.40;;
79143;SDS011;68551;47.484;19.092;2023-04-24T17:10:00;4.85;;;4.18;;
79143;SDS011;68551;47.484;19.092;2023-04-24T17:13:07;5.47;;;4.97;;
79143;SDS011;68551;47.484;19.092;2023-04-24T17:16:10;4.43;;;4.03;;
79143;SDS011;68551;47.484;19.092;2023-04-24T17:19:14;6.07;;;3.60;;
79143;SDS011;68551;47.484;19.092;2023-04-24T17:22:20;5.80;;;3.80;;
79143;SDS011;68551;47.484;19.092;2023-04-24T17:25:23;3.92;;;3.53;;
79143;SDS011;68551;47.484;19.092;2023-04-24T17:28:26;4.80;;;3.75;;
79143;SDS011;68551;47.484;19.092;2023-04-24T17:31:30;7.18;;;3.90;;
79143;SDS011;68551;47.484;19.092;2023-04-24T17:34:35;3.88;;;3.58;;
79143;SDS011;68551;47.484;19.092;2023-04-24T17:37:38;3.83;;;3.25;;
79143;SDS011;68551;47.484;19.092;2023-04-24T17:40:42;5.18;;;4.40;;
79143;SDS011;68551;47.484;19.092;2023-04-24T17:43:47;4.95;;;3.85;;
79143;SDS011;68551;47.484;19.092;2023-04-24T17:46:50;4.20;;;3.47;;
79143;SDS011;68551;47.484;19.092;2023-04-24T17:49:55;5.63;;;3.90;;
79143;SDS011;68551;47.484;19.092;2023-04-24T17:52:58;7.60;;;3.90;;
79143;SDS011;68551;47.484;19.092;2023-04-24T17:56:00;3.78;;;3.35;;
79143;SDS011;68551;47.484;19.092;2023-04-24T17:59:04;4.88;;;3.50;;
79143;SDS011;68551;47.484;19.092;2023-04-24T18:02:09;3.65;;;3.03;;
79143;SDS011;68551;47.484;19.092;2023-04-24T18:05:14;4.28;;;3.22;;
79143;SDS011;68551;47.484;19.092;2023-04-24T18:08:18;4.40;;;3.53;;
79143;SDS011;68551;47.484;19.092;2023-04-24T18:11:23;4.25;;;3.78;;
79143;SDS011;68551;47.484;19.092;2023-04-24T18:14:25;3.75;;;3.28;;
79143;SDS011;68551;47.484;19.092;2023-04-24T18:17:31;5.25;;;3.65;;
79143;SDS011;68551;47.484;19.092;2023-04-24T18:20:33;4.47;;;3.33;;
79143;SDS011;68551;47.484;19.092;2023-04-24T18:23:36;4.63;;;3.20;;
79143;SDS011;68551;47.484;19.092;2023-04-24T18:26:38;3.42;;;3.00;;
79143;SDS011;68551;47.484;19.092;2023-04-24T18:29:43;3.78;;;2.63;;
79143;SDS011;68551;47.484;19.092;2023-04-24T18:32:45;3.90;;;2.67;;
79143;SDS011;68551;47.484;19.092;2023-04-24T18:35:52;4.35;;;2.67;;
79143;SDS011;68551;47.484;19.092;2023-04-24T18:38:56;3.85;;;2.70;;